createdAt,value
2023-01-13T00:00:50.230Z,6.70
2023-01-13T00:03:52.531Z,6.70
2023-01-13T00:06:53.315Z,6.70
2023-01-13T00:09:54.384Z,6.90
2023-01-13T00:12:55.494Z,7.00
2023-01-13T00:16:05.231Z,7.00
2023-01-13T00:19:06.253Z,7.00
2023-01-13T00:22:07.187Z,6.90
2023-01-13T00:25:08.841Z,7.00
2023-01-13T00:28:10.268Z,7.10
2023-01-13T00:31:20.927Z,7.00
2023-01-13T00:34:22.449Z,7.00
2023-01-13T00:37:23.721Z,7.10
2023-01-13T00:40:24.818Z,7.10
2023-01-13T00:43:26.932Z,7.10
2023-01-13T00:46:28.351Z,7.20
2023-01-13T00:49:29.587Z,7.20
2023-01-13T00:52:32.971Z,7.00
2023-01-13T00:55:34.235Z,7.00
2023-01-13T00:58:36.468Z,6.90
2023-01-13T01:01:37.195Z,6.90
2023-01-13T01:04:38.502Z,7.20
2023-01-13T01:07:39.536Z,7.30
2023-01-13T01:10:40.699Z,7.40
2023-01-13T01:13:44.676Z,7.30
2023-01-13T01:16:45.652Z,7.30
2023-01-13T01:19:46.415Z,7.40
2023-01-13T01:22:47.628Z,7.50
2023-01-13T01:25:48.221Z,7.40
2023-01-13T01:28:49.425Z,7.40
2023-01-13T01:31:50.372Z,7.40
2023-01-13T01:34:52.246Z,7.40
2023-01-13T01:37:53.317Z,7.30
2023-01-13T01:40:54.536Z,7.40
2023-01-13T01:44:00.225Z,7.40
2023-01-13T01:47:01.867Z,7.40
2023-01-13T01:50:04.936Z,7.40
2023-01-13T01:53:19.693Z,7.40
2023-01-13T01:56:21.491Z,7.40
2023-01-13T01:59:23.946Z,7.30
2023-01-13T02:02:25.416Z,7.50
2023-01-13T02:05:26.204Z,7.70
2023-01-13T02:08:27.490Z,7.70
2023-01-13T02:11:52.911Z,7.70
2023-01-13T02:14:53.965Z,7.60
2023-01-13T02:18:15.974Z,7.80
2023-01-13T02:22:14.530Z,7.80
2023-01-13T02:26:10.808Z,7.70
2023-01-13T02:30:12.301Z,7.80
2023-01-13T02:33:59.201Z,7.80
2023-01-13T02:37:07.665Z,7.80
2023-01-13T02:40:26.977Z,8.00
2023-01-13T02:43:58.439Z,8.00
2023-01-13T02:47:10.466Z,8.10
2023-01-13T02:50:21.725Z,8.00
2023-01-13T02:53:37.716Z,7.90
2023-01-13T02:56:45.306Z,8.00
2023-01-13T02:59:48.250Z,7.90
2023-01-13T03:02:50.179Z,7.90
2023-01-13T03:06:00.833Z,7.80
2023-01-13T03:09:16.177Z,7.70
2023-01-13T03:12:37.746Z,7.70
2023-01-13T03:15:59.390Z,7.80
2023-01-13T03:19:21.784Z,7.80
2023-01-13T03:22:44.961Z,7.80
2023-01-13T03:26:34.376Z,7.80
2023-01-13T03:29:47.310Z,7.80
2023-01-13T03:32:59.760Z,7.90
2023-01-13T03:36:09.171Z,7.90
2023-01-13T03:39:20.400Z,8.00
2023-01-13T03:42:26.333Z,8.00
2023-01-13T03:45:30.278Z,8.30
2023-01-13T03:48:37.621Z,8.20
2023-01-13T03:51:42.963Z,8.20
2023-01-13T03:54:54.631Z,7.80
2023-01-13T03:58:16.170Z,7.80
2023-01-13T04:01:24.689Z,7.80
2023-01-13T04:04:40.969Z,7.80
2023-01-13T04:08:01.465Z,7.80
2023-01-13T04:11:18.678Z,7.80
2023-01-13T04:14:23.477Z,7.70
2023-01-13T04:17:24.824Z,7.60
2023-01-13T04:20:25.956Z,7.60
2023-01-13T04:23:28.271Z,7.50
2023-01-13T04:26:29.028Z,7.50
2023-01-13T04:29:30.055Z,7.50
2023-01-13T04:32:31.192Z,7.50
2023-01-13T04:35:33.370Z,7.50
2023-01-13T04:38:34.508Z,7.50
2023-01-13T04:41:53.743Z,7.50
2023-01-13T04:44:55.024Z,7.50
2023-01-13T04:47:56.083Z,7.50
2023-01-13T04:50:56.888Z,7.40
2023-01-13T04:53:58.002Z,7.40
2023-01-13T04:56:59.338Z,7.40
2023-01-13T05:00:02.186Z,7.40
2023-01-13T05:03:03.980Z,7.40
2023-01-13T05:06:05.057Z,7.30
2023-01-13T05:09:06.328Z,7.30
2023-01-13T05:12:26.063Z,7.30
2023-01-13T05:15:45.769Z,7.30
2023-01-13T05:18:46.594Z,7.30
2023-01-13T05:22:06.088Z,7.30
2023-01-13T05:25:22.345Z,7.40
2023-01-13T05:28:23.187Z,7.50
2023-01-13T05:31:23.895Z,7.50
2023-01-13T05:34:25.225Z,7.60
2023-01-13T05:37:27.877Z,7.70
2023-01-13T05:40:47.350Z,7.50
2023-01-13T05:43:48.127Z,7.50
2023-01-13T05:46:48.786Z,7.50
2023-01-13T05:49:49.649Z,7.50
2023-01-13T05:52:50.701Z,7.50
2023-01-13T05:55:52.443Z,7.50
2023-01-13T05:58:53.366Z,7.40
2023-01-13T06:01:54.003Z,7.60
2023-01-13T06:04:55.102Z,7.60
2023-01-13T06:08:01.219Z,7.60
2023-01-13T06:11:02.309Z,7.50
2023-01-13T06:14:03.118Z,7.50
2023-01-13T06:17:04.176Z,7.50
2023-01-13T06:20:08.370Z,7.60
2023-01-13T06:23:11.967Z,7.60
2023-01-13T06:26:20.441Z,7.70
2023-01-13T06:29:21.115Z,7.60
2023-01-13T06:32:28.990Z,7.70
2023-01-13T06:35:35.460Z,7.50
2023-01-13T06:38:43.191Z,7.50
2023-01-13T06:42:03.601Z,7.40
2023-01-13T06:45:04.900Z,7.40
2023-01-13T06:48:06.949Z,7.30
2023-01-13T06:51:08.017Z,7.30
2023-01-13T06:54:09.017Z,7.20
2023-01-13T06:57:10.195Z,7.20
2023-01-13T07:00:12.638Z,7.10
2023-01-13T07:03:16.588Z,7.20
2023-01-13T07:06:17.722Z,7.20
2023-01-13T07:09:18.813Z,7.20
2023-01-13T07:12:19.445Z,7.20
2023-01-13T07:15:20.459Z,7.20
2023-01-13T07:18:21.833Z,7.10
2023-01-13T07:21:23.074Z,7.10
2023-01-13T07:24:23.867Z,7.10
2023-01-13T07:27:25.095Z,7.10
2023-01-13T07:30:25.917Z,7.10
2023-01-13T07:33:27.407Z,7.10
2023-01-13T07:36:28.706Z,7.10
2023-01-13T07:39:29.535Z,7.10
2023-01-13T07:42:48.573Z,7.10
2023-01-13T07:45:49.601Z,7.10
2023-01-13T07:48:50.957Z,7.10
2023-01-13T07:51:51.814Z,7.20
2023-01-13T07:54:52.985Z,7.20
2023-01-13T07:57:54.229Z,7.30
2023-01-13T08:00:56.052Z,7.40
2023-01-13T08:03:59.070Z,7.50
2023-01-13T08:07:00.318Z,7.70
2023-01-13T08:10:03.393Z,7.70
2023-01-13T08:13:21.120Z,7.60
2023-01-13T08:16:22.184Z,7.60
2023-01-13T08:19:23.270Z,7.60
2023-01-13T08:22:24.414Z,7.70
2023-01-13T08:25:27.039Z,7.70
2023-01-13T08:28:28.049Z,7.70
2023-01-13T08:31:28.791Z,7.80
2023-01-13T08:34:29.636Z,8.00
2023-01-13T08:37:30.539Z,8.00
2023-01-13T08:40:32.101Z,8.00
2023-01-13T08:43:33.014Z,7.90
2023-01-13T08:46:34.070Z,7.90
2023-01-13T08:49:34.921Z,7.80
2023-01-13T08:52:35.936Z,7.70
2023-01-13T08:55:36.750Z,7.70
2023-01-13T08:58:37.507Z,7.60
2023-01-13T09:01:39.607Z,7.70
2023-01-13T09:04:41.496Z,7.70
2023-01-13T09:07:42.419Z,7.70
2023-01-13T09:10:43.383Z,7.90
2023-01-13T09:13:44.094Z,8.30
2023-01-13T09:16:47.803Z,8.40
2023-01-13T09:19:48.809Z,8.60
2023-01-13T09:22:50.076Z,8.40
2023-01-13T09:25:53.052Z,8.80
2023-01-13T09:28:53.586Z,8.60
2023-01-13T09:31:55.005Z,8.50
2023-01-13T09:35:01.911Z,8.60
2023-01-13T09:38:03.152Z,8.50
2023-01-13T09:41:24.573Z,8.60
2023-01-13T09:44:52.706Z,8.60
2023-01-13T09:48:13.844Z,8.70
2023-01-13T09:51:33.910Z,8.90
2023-01-13T09:55:05.808Z,8.90
2023-01-13T09:58:17.442Z,9.10
2023-01-13T10:01:45.502Z,9.10
2023-01-13T10:05:05.290Z,9.10
2023-01-13T10:08:36.367Z,9.20
2023-01-13T10:12:01.087Z,9.20
2023-01-13T10:15:02.094Z,9.40
2023-01-13T10:18:22.652Z,9.60
2023-01-13T10:22:03.083Z,9.60
2023-01-13T10:25:26.504Z,12.80
2023-01-13T10:28:27.468Z,10.70
2023-01-13T10:31:28.346Z,10.20
2023-01-13T10:34:30.175Z,10.10
2023-01-13T10:37:31.794Z,9.80
2023-01-13T10:40:32.742Z,9.80
2023-01-13T10:43:33.953Z,9.60
2023-01-13T10:46:51.803Z,9.50
2023-01-13T10:50:27.159Z,9.40
2023-01-13T10:53:29.532Z,9.30
2023-01-13T10:56:34.730Z,9.30
2023-01-13T10:59:36.258Z,9.00
2023-01-13T11:02:37.450Z,8.70
2023-01-13T11:05:38.555Z,8.40
2023-01-13T11:08:46.302Z,8.10
2023-01-13T11:11:49.756Z,7.80
2023-01-13T11:14:52.133Z,7.40
2023-01-13T11:18:09.517Z,7.20
2023-01-13T11:21:36.749Z,7.10
2023-01-13T11:24:59.235Z,7.10
2023-01-13T11:28:16.148Z,7.00
2023-01-13T11:31:33.669Z,7.00
2023-01-13T11:34:40.791Z,6.90
2023-01-13T11:37:50.440Z,7.00
2023-01-13T11:40:51.680Z,7.10
2023-01-13T11:44:18.315Z,7.10
2023-01-13T11:47:25.354Z,7.30
2023-01-13T11:50:42.426Z,7.20
2023-01-13T11:54:28.253Z,7.20
2023-01-13T11:58:00.408Z,7.20
2023-01-13T12:01:13.327Z,6.90
2023-01-13T12:06:37.295Z,7.10
2023-01-13T12:10:00.772Z,7.20
2023-01-13T12:13:44.559Z,8.60
2023-01-13T12:16:49.685Z,8.00
2023-01-13T12:19:51.623Z,11.90
2023-01-13T12:22:58.130Z,11.00
2023-01-13T12:26:10.340Z,10.60
2023-01-13T12:29:20.399Z,9.00
2023-01-13T12:32:30.773Z,8.40
2023-01-13T12:35:48.180Z,8.40
2023-01-13T15:06:24.901Z,8.50
2023-01-13T15:09:32.935Z,8.20
2023-01-13T15:12:39.852Z,8.00
2023-01-13T15:16:03.485Z,8.00
2023-01-13T15:19:04.615Z,8.60
2023-01-13T15:22:05.332Z,8.10
2023-01-13T15:25:06.974Z,7.70
2023-01-13T15:28:17.285Z,7.50
2023-01-13T15:31:19.115Z,7.30
2023-01-13T15:34:20.129Z,7.20
2023-01-13T15:37:21.270Z,7.20
2023-01-13T15:40:32.650Z,7.20
2023-01-13T15:43:51.964Z,7.20
2023-01-13T15:46:52.991Z,7.10
2023-01-13T15:49:54.781Z,7.00
2023-01-13T15:52:55.615Z,6.70
2023-01-13T15:55:59.171Z,6.40
2023-01-13T15:59:00.212Z,5.70
2023-01-13T16:02:00.908Z,5.30
2023-01-13T16:05:01.949Z,5.10
2023-01-13T16:08:03.082Z,5.00
2023-01-13T16:11:04.069Z,4.90
2023-01-13T16:14:04.872Z,4.90
2023-01-13T16:17:35.219Z,4.90
2023-01-13T16:20:36.403Z,4.90
2023-01-13T16:23:37.276Z,5.00
2023-01-13T16:26:39.027Z,4.90
2023-01-13T16:29:39.967Z,4.80
2023-01-13T16:32:41.240Z,4.60
2023-01-13T16:36:08.770Z,4.70
2023-01-13T16:39:18.746Z,4.70
2023-01-13T16:42:21.332Z,4.60
2023-01-13T16:45:22.996Z,4.60
2023-01-13T16:48:24.131Z,4.50
2023-01-13T16:51:25.235Z,4.50
2023-01-13T16:54:26.304Z,4.40
2023-01-13T16:57:27.147Z,4.40
2023-01-13T17:00:28.305Z,4.40
2023-01-13T17:03:31.839Z,4.30
2023-01-13T17:06:40.896Z,4.30
2023-01-13T17:09:41.656Z,4.30
2023-01-13T17:12:42.552Z,4.20
2023-01-13T17:15:43.373Z,4.20
2023-01-13T17:18:44.991Z,4.30
2023-01-13T17:21:47.272Z,4.20
2023-01-13T17:24:48.844Z,4.20
2023-01-13T17:27:49.722Z,4.20
2023-01-13T17:30:50.545Z,4.10
2023-01-13T17:33:51.808Z,4.20
2023-01-13T17:36:52.787Z,4.20
2023-01-13T17:39:53.759Z,4.20
2023-01-13T17:42:54.861Z,4.30
2023-01-13T17:45:55.644Z,4.30
2023-01-13T17:48:56.855Z,4.40
2023-01-13T17:51:57.942Z,4.40
2023-01-13T17:54:58.781Z,4.50
2023-01-13T17:57:59.449Z,4.50
2023-01-13T18:01:00.243Z,4.50
2023-01-13T18:04:02.455Z,4.40
2023-01-13T18:07:03.376Z,4.40
2023-01-13T18:10:04.975Z,4.40
2023-01-13T18:13:06.600Z,4.40
2023-01-13T18:16:13.250Z,4.40
2023-01-13T18:19:32.812Z,4.40
2023-01-13T18:22:51.975Z,4.40
2023-01-13T18:26:11.730Z,4.50
2023-01-13T18:29:12.409Z,4.40
2023-01-13T18:32:14.768Z,4.40
2023-01-13T18:35:15.759Z,4.30
2023-01-13T18:38:20.516Z,4.40
2023-01-13T18:41:39.863Z,4.40
2023-01-13T18:44:41.301Z,4.50
2023-01-13T18:47:42.507Z,4.60
2023-01-13T18:50:43.865Z,4.60
2023-01-13T18:53:45.320Z,4.70
2023-01-13T18:56:47.152Z,4.70
2023-01-13T18:59:48.498Z,4.60
2023-01-13T19:06:11.867Z,4.60
2023-01-13T19:09:13.193Z,4.80
2023-01-13T19:12:16.228Z,4.80
2023-01-13T19:15:17.497Z,5.00
2023-01-13T19:18:21.449Z,5.00
2023-01-13T19:21:22.616Z,5.00
2023-01-13T19:24:26.210Z,5.00
2023-01-13T19:27:28.181Z,5.10
2023-01-13T19:30:29.115Z,5.20
2023-01-13T19:33:32.790Z,5.20
2023-01-13T19:36:33.559Z,5.20
2023-01-13T19:39:35.724Z,5.40
2023-01-13T19:42:55.759Z,5.50
2023-01-13T19:45:56.781Z,5.40
2023-01-13T19:48:58.049Z,5.40
2023-01-13T19:51:58.661Z,5.40
2023-01-13T19:54:59.535Z,5.40
2023-01-13T19:58:00.950Z,5.40
2023-01-13T20:01:09.886Z,5.30
2023-01-13T20:04:14.489Z,5.20
2023-01-13T20:07:15.685Z,5.20
2023-01-13T20:10:19.071Z,5.20
2023-01-13T20:13:19.877Z,5.00
2023-01-13T20:16:20.723Z,5.00
2023-01-13T20:19:22.154Z,4.90
2023-01-13T20:22:23.029Z,4.80
2023-01-13T20:25:25.817Z,4.70
2023-01-13T20:28:27.280Z,4.60
2023-01-13T20:31:28.429Z,4.50
2023-01-13T20:34:29.828Z,4.40
2023-01-13T20:37:31.125Z,4.40
2023-01-13T20:40:32.360Z,4.30
2023-01-13T20:43:33.151Z,4.30
2023-01-13T20:46:34.084Z,4.30
2023-01-13T20:49:38.512Z,4.20
2023-01-13T20:52:39.678Z,4.20
2023-01-13T20:55:40.846Z,4.10
2023-01-13T20:58:41.573Z,4.10
2023-01-13T21:01:43.042Z,4.00
2023-01-13T21:04:44.334Z,4.20
2023-01-13T21:07:45.374Z,4.10
2023-01-13T21:10:46.184Z,4.10
2023-01-13T21:14:05.444Z,4.10
2023-01-13T21:17:07.965Z,4.00
2023-01-13T21:20:14.417Z,4.10
2023-01-13T21:23:15.546Z,4.20
2023-01-13T21:26:17.089Z,4.10
2023-01-13T21:29:18.367Z,4.10
2023-01-13T21:32:19.358Z,4.10
2023-01-13T21:35:20.287Z,4.10
2023-01-13T21:38:21.495Z,4.20
2023-01-13T21:41:42.105Z,4.10
2023-01-13T21:45:01.257Z,4.10
2023-01-13T21:48:02.468Z,4.10
2023-01-13T21:51:03.926Z,4.10
2023-01-13T21:54:04.703Z,4.10
2023-01-13T21:57:05.518Z,4.10
2023-01-13T22:00:07.234Z,4.10
2023-01-13T22:03:09.999Z,4.10
2023-01-13T22:06:11.131Z,4.10
2023-01-13T22:09:12.922Z,4.00
2023-01-13T22:12:15.719Z,3.90
2023-01-13T22:15:17.257Z,3.80
2023-01-13T22:18:18.538Z,3.90
2023-01-13T22:21:20.144Z,4.10
2023-01-13T22:24:21.182Z,4.10
2023-01-13T22:27:26.493Z,4.10
2023-01-13T22:30:31.999Z,4.10
2023-01-13T22:33:33.178Z,4.00
2023-01-13T22:36:34.296Z,3.90
2023-01-13T22:39:35.981Z,3.90
2023-01-13T22:42:42.392Z,3.80
2023-01-13T22:45:43.600Z,3.70
2023-01-13T22:48:46.108Z,3.70
2023-01-13T22:51:47.760Z,3.50
2023-01-13T22:54:48.733Z,3.30
2023-01-13T22:57:49.781Z,3.30
2023-01-13T23:00:51.440Z,3.30
2023-01-13T23:03:52.493Z,3.20
2023-01-13T23:06:53.856Z,3.40
2023-01-13T23:09:55.082Z,3.60
2023-01-13T23:12:56.388Z,3.80
2023-01-13T23:16:07.916Z,3.90
2023-01-13T23:19:10.631Z,3.90
2023-01-13T23:22:13.198Z,4.30
2023-01-13T23:25:14.477Z,4.50
2023-01-13T23:28:15.247Z,4.50
2023-01-13T23:31:21.006Z,4.50
2023-01-13T23:34:21.738Z,4.50
2023-01-13T23:37:23.004Z,4.50
2023-01-13T23:40:24.164Z,4.50
2023-01-13T23:43:26.592Z,4.50
2023-01-13T23:46:33.179Z,4.40
2023-01-13T23:49:34.692Z,4.30
2023-01-13T23:52:36.027Z,4.30
2023-01-13T23:55:37.345Z,4.30
2023-01-13T23:58:38.277Z,4.30
